sensor_id;sensor_type;location;lat;lon;timestamp;P1;durP1;ratioP1;P2;durP2;ratioP2
67514;SDS011;60646;55.802;37.032;2022-10-13T00:02:21;2.55;;;1.35;;
67514;SDS011;60646;55.802;37.032;2022-10-13T00:04:47;2.13;;;1.30;;
67514;SDS011;60646;55.802;37.032;2022-10-13T00:07:12;3.50;;;1.23;;
67514;SDS011;60646;55.802;37.032;2022-10-13T00:09:38;3.30;;;1.63;;
67514;SDS011;60646;55.802;37.032;2022-10-13T00:12:04;2.47;;;1.77;;
67514;SDS011;60646;55.802;37.032;2022-10-13T00:14:30;1.98;;;1.13;;
67514;SDS011;60646;55.802;37.032;2022-10-13T00:16:56;2.90;;;1.38;;
67514;SDS011;60646;55.802;37.032;2022-10-13T00:19:22;2.13;;;1.27;;
67514;SDS011;60646;55.802;37.032;2022-10-13T00:21:48;2.38;;;1.20;;
67514;SDS011;60646;55.802;37.032;2022-10-13T00:24:13;1.67;;;1.10;;
67514;SDS011;60646;55.802;37.032;2022-10-13T00:26:39;2.67;;;1.38;;
67514;SDS011;60646;55.802;37.032;2022-10-13T00:29:06;5.97;;;1.33;;
67514;SDS011;60646;55.802;37.032;2022-10-13T00:31:31;2.78;;;1.40;;
67514;SDS011;60646;55.802;37.032;2022-10-13T00:33:58;3.92;;;1.48;;
67514;SDS011;60646;55.802;37.032;2022-10-13T00:36:25;4.75;;;1.70;;
67514;SDS011;60646;55.802;37.032;2022-10-13T00:38:51;2.25;;;1.20;;
67514;SDS011;60646;55.802;37.032;2022-10-13T00:41:17;4.07;;;1.50;;
67514;SDS011;60646;55.802;37.032;2022-10-13T00:46:32;2.05;;;1.10;;
67514;SDS011;60646;55.802;37.032;2022-10-13T00:49:05;3.22;;;1.40;;
67514;SDS011;60646;55.802;37.032;2022-10-13T00:54:03;2.47;;;0.98;;
67514;SDS011;60646;55.802;37.032;2022-10-13T00:56:31;1.67;;;1.02;;
67514;SDS011;60646;55.802;37.032;2022-10-13T00:58:58;2.42;;;1.13;;
67514;SDS011;60646;55.802;37.032;2022-10-13T01:01:25;2.10;;;1.20;;
67514;SDS011;60646;55.802;37.032;2022-10-13T01:03:51;1.63;;;1.17;;
67514;SDS011;60646;55.802;37.032;2022-10-13T01:06:17;3.35;;;1.60;;
67514;SDS011;60646;55.802;37.032;2022-10-13T01:08:43;2.33;;;1.02;;
67514;SDS011;60646;55.802;37.032;2022-10-13T01:14:33;1.98;;;1.13;;
67514;SDS011;60646;55.802;37.032;2022-10-13T01:17:09;3.42;;;1.00;;
67514;SDS011;60646;55.802;37.032;2022-10-13T01:31:27;1.05;;;0.80;;
67514;SDS011;60646;55.802;37.032;2022-10-13T01:37:00;1.33;;;0.93;;
67514;SDS011;60646;55.802;37.032;2022-10-13T01:39:42;2.97;;;0.98;;
67514;SDS011;60646;55.802;37.032;2022-10-13T01:42:23;1.40;;;0.80;;
67514;SDS011;60646;55.802;37.032;2022-10-13T01:45:14;1.25;;;0.80;;
67514;SDS011;60646;55.802;37.032;2022-10-13T01:47:43;1.90;;;0.90;;
67514;SDS011;60646;55.802;37.032;2022-10-13T01:50:11;1.95;;;1.15;;
67514;SDS011;60646;55.802;37.032;2022-10-13T01:52:40;1.10;;;0.80;;
67514;SDS011;60646;55.802;37.032;2022-10-13T01:55:08;1.65;;;0.90;;
67514;SDS011;60646;55.802;37.032;2022-10-13T01:57:37;1.58;;;0.98;;
67514;SDS011;60646;55.802;37.032;2022-10-13T02:00:07;2.17;;;1.00;;
67514;SDS011;60646;55.802;37.032;2022-10-13T02:02:42;2.83;;;1.10;;
67514;SDS011;60646;55.802;37.032;2022-10-13T02:05:21;1.60;;;0.90;;
67514;SDS011;60646;55.802;37.032;2022-10-13T02:07:52;1.02;;;0.70;;
67514;SDS011;60646;55.802;37.032;2022-10-13T02:10:26;2.42;;;1.05;;
67514;SDS011;60646;55.802;37.032;2022-10-13T02:12:58;1.88;;;1.00;;
67514;SDS011;60646;55.802;37.032;2022-10-13T02:15:37;1.40;;;1.00;;
67514;SDS011;60646;55.802;37.032;2022-10-13T02:18:07;1.52;;;1.20;;
67514;SDS011;60646;55.802;37.032;2022-10-13T02:20:36;1.23;;;0.88;;
67514;SDS011;60646;55.802;37.032;2022-10-13T02:23:06;1.27;;;0.80;;
67514;SDS011;60646;55.802;37.032;2022-10-13T02:25:35;1.00;;;0.70;;
67514;SDS011;60646;55.802;37.032;2022-10-13T02:28:01;2.17;;;0.80;;
67514;SDS011;60646;55.802;37.032;2022-10-13T02:30:30;1.05;;;0.82;;
67514;SDS011;60646;55.802;37.032;2022-10-13T02:32:58;2.65;;;1.10;;
67514;SDS011;60646;55.802;37.032;2022-10-13T02:35:27;1.10;;;0.90;;
67514;SDS011;60646;55.802;37.032;2022-10-13T02:37:55;1.65;;;0.90;;
67514;SDS011;60646;55.802;37.032;2022-10-13T02:40:21;1.80;;;0.90;;
67514;SDS011;60646;55.802;37.032;2022-10-13T02:42:47;1.92;;;0.93;;
67514;SDS011;60646;55.802;37.032;2022-10-13T02:45:13;1.38;;;0.90;;
67514;SDS011;60646;55.802;37.032;2022-10-13T02:47:39;1.85;;;1.10;;
67514;SDS011;60646;55.802;37.032;2022-10-13T02:50:05;2.08;;;1.10;;
67514;SDS011;60646;55.802;37.032;2022-10-13T02:52:31;1.05;;;0.90;;
67514;SDS011;60646;55.802;37.032;2022-10-13T02:54:57;2.08;;;0.98;;
67514;SDS011;60646;55.802;37.032;2022-10-13T02:57:22;3.30;;;1.05;;
67514;SDS011;60646;55.802;37.032;2022-10-13T02:59:51;1.85;;;0.93;;
67514;SDS011;60646;55.802;37.032;2022-10-13T03:02:17;1.80;;;0.88;;
67514;SDS011;60646;55.802;37.032;2022-10-13T03:04:43;2.33;;;1.02;;
67514;SDS011;60646;55.802;37.032;2022-10-13T03:07:08;1.33;;;0.95;;
67514;SDS011;60646;55.802;37.032;2022-10-13T03:09:34;1.35;;;0.80;;
67514;SDS011;60646;55.802;37.032;2022-10-13T03:12:00;1.23;;;0.77;;
67514;SDS011;60646;55.802;37.032;2022-10-13T03:14:26;1.55;;;0.90;;
67514;SDS011;60646;55.802;37.032;2022-10-13T03:16:52;1.35;;;0.70;;
67514;SDS011;60646;55.802;37.032;2022-10-13T03:19:19;1.15;;;0.90;;
67514;SDS011;60646;55.802;37.032;2022-10-13T03:21:45;2.65;;;0.80;;
67514;SDS011;60646;55.802;37.032;2022-10-13T03:24:10;1.90;;;1.00;;
67514;SDS011;60646;55.802;37.032;2022-10-13T03:26:36;1.75;;;1.02;;
67514;SDS011;60646;55.802;37.032;2022-10-13T03:29:02;1.73;;;1.05;;
67514;SDS011;60646;55.802;37.032;2022-10-13T03:31:28;2.25;;;1.30;;
67514;SDS011;60646;55.802;37.032;2022-10-13T03:34:00;1.23;;;1.02;;
67514;SDS011;60646;55.802;37.032;2022-10-13T03:36:27;1.67;;;1.00;;
67514;SDS011;60646;55.802;37.032;2022-10-13T03:38:53;0.95;;;0.75;;
67514;SDS011;60646;55.802;37.032;2022-10-13T03:41:19;0.75;;;0.73;;
67514;SDS011;60646;55.802;37.032;2022-10-13T03:43:48;1.65;;;0.73;;
67514;SDS011;60646;55.802;37.032;2022-10-13T03:46:15;1.20;;;0.80;;
67514;SDS011;60646;55.802;37.032;2022-10-13T03:48:44;1.33;;;0.82;;
67514;SDS011;60646;55.802;37.032;2022-10-13T03:51:15;1.52;;;0.98;;
67514;SDS011;60646;55.802;37.032;2022-10-13T03:53:48;1.52;;;1.00;;
67514;SDS011;60646;55.802;37.032;2022-10-13T03:56:16;2.25;;;0.88;;
67514;SDS011;60646;55.802;37.032;2022-10-13T03:58:50;1.40;;;1.00;;
67514;SDS011;60646;55.802;37.032;2022-10-13T04:01:20;3.15;;;0.90;;
67514;SDS011;60646;55.802;37.032;2022-10-13T04:03:48;2.17;;;1.10;;
67514;SDS011;60646;55.802;37.032;2022-10-13T04:06:14;1.38;;;0.95;;
67514;SDS011;60646;55.802;37.032;2022-10-13T04:08:41;2.15;;;1.08;;
67514;SDS011;60646;55.802;37.032;2022-10-13T04:11:08;2.40;;;1.08;;
67514;SDS011;60646;55.802;37.032;2022-10-13T04:13:39;2.50;;;1.20;;
67514;SDS011;60646;55.802;37.032;2022-10-13T04:16:39;1.73;;;0.90;;
67514;SDS011;60646;55.802;37.032;2022-10-13T04:19:01;1.70;;;0.98;;
67514;SDS011;60646;55.802;37.032;2022-10-13T04:21:29;1.27;;;0.95;;
67514;SDS011;60646;55.802;37.032;2022-10-13T04:23:57;1.02;;;0.90;;
67514;SDS011;60646;55.802;37.032;2022-10-13T04:26:25;1.38;;;1.25;;
67514;SDS011;60646;55.802;37.032;2022-10-13T04:28:53;2.40;;;1.05;;
67514;SDS011;60646;55.802;37.032;2022-10-13T04:31:20;1.55;;;1.05;;
67514;SDS011;60646;55.802;37.032;2022-10-13T04:33:47;3.40;;;1.20;;
67514;SDS011;60646;55.802;37.032;2022-10-13T04:36:13;1.25;;;1.00;;
67514;SDS011;60646;55.802;37.032;2022-10-13T04:38:40;4.88;;;1.10;;
67514;SDS011;60646;55.802;37.032;2022-10-13T04:41:25;3.38;;;0.90;;
67514;SDS011;60646;55.802;37.032;2022-10-13T04:43:54;1.10;;;0.80;;
67514;SDS011;60646;55.802;37.032;2022-10-13T04:46:24;1.63;;;0.95;;
67514;SDS011;60646;55.802;37.032;2022-10-13T04:48:53;2.97;;;1.35;;
67514;SDS011;60646;55.802;37.032;2022-10-13T04:51:21;1.52;;;1.00;;
67514;SDS011;60646;55.802;37.032;2022-10-13T04:53:52;1.75;;;0.90;;
67514;SDS011;60646;55.802;37.032;2022-10-13T04:56:19;1.80;;;0.90;;
67514;SDS011;60646;55.802;37.032;2022-10-13T04:58:45;1.77;;;0.90;;
67514;SDS011;60646;55.802;37.032;2022-10-13T05:01:15;4.32;;;1.13;;
67514;SDS011;60646;55.802;37.032;2022-10-13T05:03:44;1.73;;;1.00;;
67514;SDS011;60646;55.802;37.032;2022-10-13T05:06:14;1.48;;;1.10;;
67514;SDS011;60646;55.802;37.032;2022-10-13T05:08:48;4.70;;;1.30;;
67514;SDS011;60646;55.802;37.032;2022-10-13T05:11:15;1.45;;;0.82;;
67514;SDS011;60646;55.802;37.032;2022-10-13T05:13:41;1.83;;;1.05;;
67514;SDS011;60646;55.802;37.032;2022-10-13T05:16:08;3.10;;;1.00;;
67514;SDS011;60646;55.802;37.032;2022-10-13T05:18:36;2.63;;;1.58;;
67514;SDS011;60646;55.802;37.032;2022-10-13T05:21:06;1.73;;;1.20;;
67514;SDS011;60646;55.802;37.032;2022-10-13T05:23:36;23.45;;;10.20;;
67514;SDS011;60646;55.802;37.032;2022-10-13T05:26:04;23.00;;;10.80;;
67514;SDS011;60646;55.802;37.032;2022-10-13T05:28:34;12.48;;;6.07;;
67514;SDS011;60646;55.802;37.032;2022-10-13T05:31:10;7.57;;;3.60;;
67514;SDS011;60646;55.802;37.032;2022-10-13T05:33:37;4.03;;;1.95;;
67514;SDS011;60646;55.802;37.032;2022-10-13T05:36:04;4.22;;;1.70;;
67514;SDS011;60646;55.802;37.032;2022-10-13T05:38:41;2.83;;;1.30;;
67514;SDS011;60646;55.802;37.032;2022-10-13T05:41:08;3.25;;;1.55;;
67514;SDS011;60646;55.802;37.032;2022-10-13T05:43:36;1.98;;;1.38;;
67514;SDS011;60646;55.802;37.032;2022-10-13T05:46:03;2.20;;;1.23;;
67514;SDS011;60646;55.802;37.032;2022-10-13T05:48:35;2.10;;;1.05;;
67514;SDS011;60646;55.802;37.032;2022-10-13T05:51:05;1.70;;;1.20;;
67514;SDS011;60646;55.802;37.032;2022-10-13T05:53:36;2.00;;;1.05;;
67514;SDS011;60646;55.802;37.032;2022-10-13T05:56:06;1.95;;;1.20;;
67514;SDS011;60646;55.802;37.032;2022-10-13T05:58:36;1.98;;;1.17;;
67514;SDS011;60646;55.802;37.032;2022-10-13T06:01:09;1.92;;;0.90;;
67514;SDS011;60646;55.802;37.032;2022-10-13T06:06:04;2.03;;;1.00;;
67514;SDS011;60646;55.802;37.032;2022-10-13T06:08:30;9.65;;;1.23;;
67514;SDS011;60646;55.802;37.032;2022-10-13T06:10:56;1.50;;;1.00;;
67514;SDS011;60646;55.802;37.032;2022-10-13T06:13:22;1.77;;;1.10;;
67514;SDS011;60646;55.802;37.032;2022-10-13T06:15:48;2.35;;;1.05;;
67514;SDS011;60646;55.802;37.032;2022-10-13T06:18:14;3.35;;;0.90;;
67514;SDS011;60646;55.802;37.032;2022-10-13T06:20:39;1.63;;;0.98;;
67514;SDS011;60646;55.802;37.032;2022-10-13T06:23:05;1.10;;;0.80;;
67514;SDS011;60646;55.802;37.032;2022-10-13T06:25:31;1.63;;;1.00;;
67514;SDS011;60646;55.802;37.032;2022-10-13T06:27:57;1.77;;;1.02;;
67514;SDS011;60646;55.802;37.032;2022-10-13T06:30:24;1.85;;;1.08;;
67514;SDS011;60646;55.802;37.032;2022-10-13T06:32:54;4.15;;;1.25;;
67514;SDS011;60646;55.802;37.032;2022-10-13T06:35:23;2.70;;;1.20;;
67514;SDS011;60646;55.802;37.032;2022-10-13T06:37:53;1.10;;;0.90;;
67514;SDS011;60646;55.802;37.032;2022-10-13T06:40:19;1.70;;;0.90;;
67514;SDS011;60646;55.802;37.032;2022-10-13T06:42:52;3.03;;;1.23;;
67514;SDS011;60646;55.802;37.032;2022-10-13T06:45:21;1.70;;;1.40;;
67514;SDS011;60646;55.802;37.032;2022-10-13T06:47:46;1.30;;;1.00;;
67514;SDS011;60646;55.802;37.032;2022-10-13T06:50:12;2.15;;;1.15;;
67514;SDS011;60646;55.802;37.032;2022-10-13T06:52:38;1.88;;;1.40;;
67514;SDS011;60646;55.802;37.032;2022-10-13T06:55:04;1.08;;;0.90;;
67514;SDS011;60646;55.802;37.032;2022-10-13T06:57:30;2.85;;;1.05;;
67514;SDS011;60646;55.802;37.032;2022-10-13T06:59:56;2.75;;;1.27;;
67514;SDS011;60646;55.802;37.032;2022-10-13T07:02:44;6.72;;;1.50;;
67514;SDS011;60646;55.802;37.032;2022-10-13T07:05:32;7.75;;;1.50;;
67514;SDS011;60646;55.802;37.032;2022-10-13T07:07:57;3.72;;;1.20;;
67514;SDS011;60646;55.802;37.032;2022-10-13T07:10:23;1.88;;;1.23;;
67514;SDS011;60646;55.802;37.032;2022-10-13T07:12:49;2.00;;;1.10;;
67514;SDS011;60646;55.802;37.032;2022-10-13T07:15:15;2.28;;;1.00;;
67514;SDS011;60646;55.802;37.032;2022-10-13T07:17:41;5.43;;;2.05;;
67514;SDS011;60646;55.802;37.032;2022-10-13T07:20:07;1.40;;;1.02;;
67514;SDS011;60646;55.802;37.032;2022-10-13T07:22:33;2.85;;;1.30;;
67514;SDS011;60646;55.802;37.032;2022-10-13T07:24:59;1.95;;;1.25;;
67514;SDS011;60646;55.802;37.032;2022-10-13T07:27:24;4.03;;;1.65;;
67514;SDS011;60646;55.802;37.032;2022-10-13T07:29:51;5.13;;;1.83;;
67514;SDS011;60646;55.802;37.032;2022-10-13T07:32:20;3.83;;;2.00;;
67514;SDS011;60646;55.802;37.032;2022-10-13T07:34:46;4.35;;;1.90;;
67514;SDS011;60646;55.802;37.032;2022-10-13T07:37:11;2.83;;;1.42;;
67514;SDS011;60646;55.802;37.032;2022-10-13T07:39:37;2.85;;;1.67;;
67514;SDS011;60646;55.802;37.032;2022-10-13T07:42:03;2.65;;;1.70;;
67514;SDS011;60646;55.802;37.032;2022-10-13T07:44:29;3.90;;;1.30;;
67514;SDS011;60646;55.802;37.032;2022-10-13T07:46:55;1.90;;;1.00;;
67514;SDS011;60646;55.802;37.032;2022-10-13T07:49:20;1.73;;;0.82;;
67514;SDS011;60646;55.802;37.032;2022-10-13T07:51:49;2.05;;;1.00;;
67514;SDS011;60646;55.802;37.032;2022-10-13T07:54:22;1.17;;;0.90;;
67514;SDS011;60646;55.802;37.032;2022-10-13T07:56:51;1.10;;;0.82;;
67514;SDS011;60646;55.802;37.032;2022-10-13T07:59:17;2.75;;;1.13;;
67514;SDS011;60646;55.802;37.032;2022-10-13T08:01:43;2.50;;;1.30;;
67514;SDS011;60646;55.802;37.032;2022-10-13T08:04:09;1.75;;;0.93;;
67514;SDS011;60646;55.802;37.032;2022-10-13T08:06:35;3.38;;;1.10;;
67514;SDS011;60646;55.802;37.032;2022-10-13T08:09:02;3.85;;;1.10;;
67514;SDS011;60646;55.802;37.032;2022-10-13T08:11:28;2.53;;;1.42;;
67514;SDS011;60646;55.802;37.032;2022-10-13T08:13:55;2.25;;;1.60;;
67514;SDS011;60646;55.802;37.032;2022-10-13T08:16:26;1.60;;;1.27;;
67514;SDS011;60646;55.802;37.032;2022-10-13T08:18:53;2.33;;;1.50;;
67514;SDS011;60646;55.802;37.032;2022-10-13T08:21:19;3.05;;;1.35;;
67514;SDS011;60646;55.802;37.032;2022-10-13T08:23:47;1.95;;;1.10;;
67514;SDS011;60646;55.802;37.032;2022-10-13T08:26:14;4.20;;;2.00;;
67514;SDS011;60646;55.802;37.032;2022-10-13T08:28:42;9.55;;;4.20;;
67514;SDS011;60646;55.802;37.032;2022-10-13T08:31:08;5.60;;;2.53;;
67514;SDS011;60646;55.802;37.032;2022-10-13T08:33:33;2.15;;;1.45;;
67514;SDS011;60646;55.802;37.032;2022-10-13T08:35:59;1.60;;;1.25;;
67514;SDS011;60646;55.802;37.032;2022-10-13T08:38:25;1.88;;;0.90;;
67514;SDS011;60646;55.802;37.032;2022-10-13T08:40:51;1.60;;;1.20;;
67514;SDS011;60646;55.802;37.032;2022-10-13T08:43:19;1.75;;;1.15;;
67514;SDS011;60646;55.802;37.032;2022-10-13T08:45:47;2.15;;;1.20;;
67514;SDS011;60646;55.802;37.032;2022-10-13T08:48:16;2.35;;;1.05;;
67514;SDS011;60646;55.802;37.032;2022-10-13T08:50:48;1.13;;;1.00;;
67514;SDS011;60646;55.802;37.032;2022-10-13T08:53:27;2.67;;;1.30;;
67514;SDS011;60646;55.802;37.032;2022-10-13T08:55:58;1.98;;;1.10;;
67514;SDS011;60646;55.802;37.032;2022-10-13T08:58:29;2.28;;;1.02;;
67514;SDS011;60646;55.802;37.032;2022-10-13T09:06:50;3.88;;;1.50;;
67514;SDS011;60646;55.802;37.032;2022-10-13T09:09:19;5.93;;;2.47;;
67514;SDS011;60646;55.802;37.032;2022-10-13T09:11:49;2.65;;;1.50;;
67514;SDS011;60646;55.802;37.032;2022-10-13T09:14:37;2.55;;;1.30;;
67514;SDS011;60646;55.802;37.032;2022-10-13T09:17:19;2.33;;;1.20;;
67514;SDS011;60646;55.802;37.032;2022-10-13T09:22:42;1.48;;;0.95;;
67514;SDS011;60646;55.802;37.032;2022-10-13T09:27:45;2.42;;;1.30;;
67514;SDS011;60646;55.802;37.032;2022-10-13T09:35:35;2.17;;;1.40;;
67514;SDS011;60646;55.802;37.032;2022-10-13T09:38:03;5.22;;;1.70;;
67514;SDS011;60646;55.802;37.032;2022-10-13T09:40:38;2.88;;;1.38;;
67514;SDS011;60646;55.802;37.032;2022-10-13T09:43:13;2.15;;;1.30;;
67514;SDS011;60646;55.802;37.032;2022-10-13T09:45:52;2.05;;;1.30;;
67514;SDS011;60646;55.802;37.032;2022-10-13T09:48:40;2.13;;;1.50;;
67514;SDS011;60646;55.802;37.032;2022-10-13T09:51:26;2.75;;;1.27;;
67514;SDS011;60646;55.802;37.032;2022-10-13T09:54:25;1.75;;;1.27;;
67514;SDS011;60646;55.802;37.032;2022-10-13T09:57:13;2.40;;;1.40;;
67514;SDS011;60646;55.802;37.032;2022-10-13T09:59:52;2.83;;;1.30;;
67514;SDS011;60646;55.802;37.032;2022-10-13T10:02:36;2.28;;;1.20;;
67514;SDS011;60646;55.802;37.032;2022-10-13T10:05:28;1.67;;;1.10;;
67514;SDS011;60646;55.802;37.032;2022-10-13T10:08:13;1.98;;;1.20;;
67514;SDS011;60646;55.802;37.032;2022-10-13T10:10:45;2.15;;;1.45;;
67514;SDS011;60646;55.802;37.032;2022-10-13T10:13:12;1.92;;;1.08;;
67514;SDS011;60646;55.802;37.032;2022-10-13T10:18:27;2.13;;;1.40;;
67514;SDS011;60646;55.802;37.032;2022-10-13T10:32:25;1.77;;;1.10;;
67514;SDS011;60646;55.802;37.032;2022-10-13T10:34:58;8.70;;;3.17;;
67514;SDS011;60646;55.802;37.032;2022-10-13T10:40:27;5.38;;;2.00;;
67514;SDS011;60646;55.802;37.032;2022-10-13T10:45:43;3.75;;;1.85;;
67514;SDS011;60646;55.802;37.032;2022-10-13T10:48:18;4.43;;;2.10;;
67514;SDS011;60646;55.802;37.032;2022-10-13T10:50:48;3.03;;;1.60;;
67514;SDS011;60646;55.802;37.032;2022-10-13T10:55:52;3.92;;;1.88;;
67514;SDS011;60646;55.802;37.032;2022-10-13T11:01:05;13.00;;;5.68;;
67514;SDS011;60646;55.802;37.032;2022-10-13T11:06:38;11.32;;;4.47;;
67514;SDS011;60646;55.802;37.032;2022-10-13T11:10:23;5.40;;;2.08;;
67514;SDS011;60646;55.802;37.032;2022-10-13T11:21:12;3.00;;;1.10;;
67514;SDS011;60646;55.802;37.032;2022-10-13T11:23:44;3.20;;;1.42;;
67514;SDS011;60646;55.802;37.032;2022-10-13T11:26:45;2.13;;;1.40;;
67514;SDS011;60646;55.802;37.032;2022-10-13T11:29:14;1.55;;;1.20;;
67514;SDS011;60646;55.802;37.032;2022-10-13T11:31:47;1.35;;;1.10;;
67514;SDS011;60646;55.802;37.032;2022-10-13T11:34:25;2.28;;;1.27;;
67514;SDS011;60646;55.802;37.032;2022-10-13T11:36:58;2.10;;;1.40;;
67514;SDS011;60646;55.802;37.032;2022-10-13T11:42:01;2.38;;;1.23;;
67514;SDS011;60646;55.802;37.032;2022-10-13T11:44:42;4.38;;;1.70;;
67514;SDS011;60646;55.802;37.032;2022-10-13T11:55:43;3.67;;;2.13;;
67514;SDS011;60646;55.802;37.032;2022-10-13T12:03:23;3.45;;;1.77;;
67514;SDS011;60646;55.802;37.032;2022-10-13T12:06:15;3.78;;;2.10;;
67514;SDS011;60646;55.802;37.032;2022-10-13T12:09:00;3.55;;;1.45;;
67514;SDS011;60646;55.802;37.032;2022-10-13T12:11:32;3.03;;;1.70;;
67514;SDS011;60646;55.802;37.032;2022-10-13T12:14:02;3.65;;;1.50;;
67514;SDS011;60646;55.802;37.032;2022-10-13T12:16:50;8.25;;;2.80;;
67514;SDS011;60646;55.802;37.032;2022-10-13T12:19:22;4.20;;;2.40;;
67514;SDS011;60646;55.802;37.032;2022-10-13T12:21:50;5.47;;;3.22;;
67514;SDS011;60646;55.802;37.032;2022-10-13T12:24:20;9.15;;;5.47;;
67514;SDS011;60646;55.802;37.032;2022-10-13T12:26:48;6.45;;;3.53;;
67514;SDS011;60646;55.802;37.032;2022-10-13T12:29:14;7.30;;;3.80;;
67514;SDS011;60646;55.802;37.032;2022-10-13T12:31:45;7.95;;;4.30;;
67514;SDS011;60646;55.802;37.032;2022-10-13T12:34:23;9.57;;;5.03;;
67514;SDS011;60646;55.802;37.032;2022-10-13T12:39:24;8.77;;;2.10;;
67514;SDS011;60646;55.802;37.032;2022-10-13T12:41:51;10.48;;;5.20;;
67514;SDS011;60646;55.802;37.032;2022-10-13T12:44:20;11.38;;;6.25;;
67514;SDS011;60646;55.802;37.032;2022-10-13T12:46:52;7.57;;;2.97;;
67514;SDS011;60646;55.802;37.032;2022-10-13T12:51:50;1.85;;;1.10;;
67514;SDS011;60646;55.802;37.032;2022-10-13T12:56:47;2.88;;;1.20;;
67514;SDS011;60646;55.802;37.032;2022-10-13T12:59:17;3.33;;;0.98;;
67514;SDS011;60646;55.802;37.032;2022-10-13T13:04:47;2.42;;;1.30;;
67514;SDS011;60646;55.802;37.032;2022-10-13T13:07:27;1.25;;;0.88;;
67514;SDS011;60646;55.802;37.032;2022-10-13T13:12:34;4.70;;;0.90;;
67514;SDS011;60646;55.802;37.032;2022-10-13T13:18:22;1.80;;;1.17;;
67514;SDS011;60646;55.802;37.032;2022-10-13T13:20:52;1.77;;;0.90;;
67514;SDS011;60646;55.802;37.032;2022-10-13T13:23:18;2.15;;;0.90;;
67514;SDS011;60646;55.802;37.032;2022-10-13T13:25:45;2.03;;;0.80;;
67514;SDS011;60646;55.802;37.032;2022-10-13T13:28:12;3.55;;;0.88;;
67514;SDS011;60646;55.802;37.032;2022-10-13T13:30:40;2.25;;;0.98;;
67514;SDS011;60646;55.802;37.032;2022-10-13T13:33:09;5.55;;;1.42;;
67514;SDS011;60646;55.802;37.032;2022-10-13T13:35:35;3.30;;;1.65;;
67514;SDS011;60646;55.802;37.032;2022-10-13T13:38:02;2.38;;;1.35;;
67514;SDS011;60646;55.802;37.032;2022-10-13T13:40:29;2.15;;;1.17;;
67514;SDS011;60646;55.802;37.032;2022-10-13T13:42:55;2.72;;;1.38;;
67514;SDS011;60646;55.802;37.032;2022-10-13T13:45:25;3.08;;;1.10;;
67514;SDS011;60646;55.802;37.032;2022-10-13T13:47:52;2.13;;;1.08;;
67514;SDS011;60646;55.802;37.032;2022-10-13T13:50:23;1.92;;;1.30;;
67514;SDS011;60646;55.802;37.032;2022-10-13T13:52:56;5.20;;;1.50;;
67514;SDS011;60646;55.802;37.032;2022-10-13T13:55:23;5.53;;;1.35;;
67514;SDS011;60646;55.802;37.032;2022-10-13T13:57:50;2.50;;;1.17;;
67514;SDS011;60646;55.802;37.032;2022-10-13T14:00:16;4.45;;;1.15;;
67514;SDS011;60646;55.802;37.032;2022-10-13T14:02:44;1.58;;;1.20;;
67514;SDS011;60646;55.802;37.032;2022-10-13T14:05:10;2.58;;;1.45;;
67514;SDS011;60646;55.802;37.032;2022-10-13T14:07:37;4.22;;;1.35;;
67514;SDS011;60646;55.802;37.032;2022-10-13T14:10:07;1.85;;;1.15;;
67514;SDS011;60646;55.802;37.032;2022-10-13T14:12:35;2.28;;;1.30;;
67514;SDS011;60646;55.802;37.032;2022-10-13T14:15:02;5.05;;;1.20;;
67514;SDS011;60646;55.802;37.032;2022-10-13T14:17:30;5.07;;;1.33;;
67514;SDS011;60646;55.802;37.032;2022-10-13T14:19:59;4.47;;;1.10;;
67514;SDS011;60646;55.802;37.032;2022-10-13T14:22:25;2.33;;;1.33;;
67514;SDS011;60646;55.802;37.032;2022-10-13T14:24:51;7.32;;;1.52;;
67514;SDS011;60646;55.802;37.032;2022-10-13T14:27:17;5.82;;;1.60;;
67514;SDS011;60646;55.802;37.032;2022-10-13T14:29:43;4.25;;;1.60;;
67514;SDS011;60646;55.802;37.032;2022-10-13T14:32:10;3.53;;;1.58;;
67514;SDS011;60646;55.802;37.032;2022-10-13T14:34:36;3.72;;;1.75;;
67514;SDS011;60646;55.802;37.032;2022-10-13T14:37:02;3.40;;;2.17;;
67514;SDS011;60646;55.802;37.032;2022-10-13T14:39:28;8.25;;;2.90;;
67514;SDS011;60646;55.802;37.032;2022-10-13T14:41:54;4.60;;;2.72;;
67514;SDS011;60646;55.802;37.032;2022-10-13T14:44:20;4.20;;;2.50;;
67514;SDS011;60646;55.802;37.032;2022-10-13T14:46:46;5.53;;;2.83;;
67514;SDS011;60646;55.802;37.032;2022-10-13T14:49:11;9.73;;;2.60;;
67514;SDS011;60646;55.802;37.032;2022-10-13T14:51:41;7.68;;;3.22;;
67514;SDS011;60646;55.802;37.032;2022-10-13T14:54:57;7.90;;;4.82;;
67514;SDS011;60646;55.802;37.032;2022-10-13T14:57:02;10.50;;;5.68;;
67514;SDS011;60646;55.802;37.032;2022-10-13T14:59:30;7.75;;;4.85;;
67514;SDS011;60646;55.802;37.032;2022-10-13T15:01:56;9.65;;;4.88;;
67514;SDS011;60646;55.802;37.032;2022-10-13T15:04:22;8.10;;;3.72;;
67514;SDS011;60646;55.802;37.032;2022-10-13T15:06:48;5.40;;;3.60;;
67514;SDS011;60646;55.802;37.032;2022-10-13T15:09:14;6.63;;;3.75;;
67514;SDS011;60646;55.802;37.032;2022-10-13T15:11:39;9.48;;;3.75;;
67514;SDS011;60646;55.802;37.032;2022-10-13T15:14:05;8.52;;;2.88;;
67514;SDS011;60646;55.802;37.032;2022-10-13T15:16:33;4.22;;;2.53;;
67514;SDS011;60646;55.802;37.032;2022-10-13T15:18:59;5.35;;;2.30;;
67514;SDS011;60646;55.802;37.032;2022-10-13T15:21:25;6.45;;;1.90;;
67514;SDS011;60646;55.802;37.032;2022-10-13T15:23:51;3.75;;;2.10;;
67514;SDS011;60646;55.802;37.032;2022-10-13T15:26:17;4.82;;;2.20;;
67514;SDS011;60646;55.802;37.032;2022-10-13T15:28:45;4.50;;;1.95;;
67514;SDS011;60646;55.802;37.032;2022-10-13T15:31:13;5.38;;;2.13;;
67514;SDS011;60646;55.802;37.032;2022-10-13T15:33:47;5.82;;;2.10;;
67514;SDS011;60646;55.802;37.032;2022-10-13T15:36:16;7.93;;;3.20;;
67514;SDS011;60646;55.802;37.032;2022-10-13T15:38:43;8.82;;;2.72;;
67514;SDS011;60646;55.802;37.032;2022-10-13T15:41:09;5.15;;;2.40;;
67514;SDS011;60646;55.802;37.032;2022-10-13T15:43:36;7.88;;;2.28;;
67514;SDS011;60646;55.802;37.032;2022-10-13T15:46:04;4.95;;;2.33;;
67514;SDS011;60646;55.802;37.032;2022-10-13T15:48:32;4.30;;;2.40;;
67514;SDS011;60646;55.802;37.032;2022-10-13T15:50:59;4.28;;;2.60;;
67514;SDS011;60646;55.802;37.032;2022-10-13T15:53:25;5.63;;;2.85;;
67514;SDS011;60646;55.802;37.032;2022-10-13T15:55:51;4.60;;;3.08;;
67514;SDS011;60646;55.802;37.032;2022-10-13T15:58:17;4.28;;;2.53;;
67514;SDS011;60646;55.802;37.032;2022-10-13T16:00:43;6.22;;;3.10;;
67514;SDS011;60646;55.802;37.032;2022-10-13T16:03:13;4.70;;;2.88;;
67514;SDS011;60646;55.802;37.032;2022-10-13T16:05:40;6.30;;;2.67;;
67514;SDS011;60646;55.802;37.032;2022-10-13T16:08:07;6.65;;;2.90;;
67514;SDS011;60646;55.802;37.032;2022-10-13T16:10:34;6.88;;;2.83;;
67514;SDS011;60646;55.802;37.032;2022-10-13T16:13:02;7.15;;;2.88;;
67514;SDS011;60646;55.802;37.032;2022-10-13T16:15:28;5.38;;;3.30;;
67514;SDS011;60646;55.802;37.032;2022-10-13T16:17:54;7.65;;;3.55;;
67514;SDS011;60646;55.802;37.032;2022-10-13T16:20:20;8.23;;;4.43;;
67514;SDS011;60646;55.802;37.032;2022-10-13T16:22:46;8.75;;;4.47;;
67514;SDS011;60646;55.802;37.032;2022-10-13T16:25:12;7.43;;;3.95;;
67514;SDS011;60646;55.802;37.032;2022-10-13T16:27:38;6.43;;;3.50;;
67514;SDS011;60646;55.802;37.032;2022-10-13T16:30:04;16.23;;;4.10;;
67514;SDS011;60646;55.802;37.032;2022-10-13T16:32:35;8.52;;;4.55;;
67514;SDS011;60646;55.802;37.032;2022-10-13T16:35:02;10.35;;;4.28;;
67514;SDS011;60646;55.802;37.032;2022-10-13T16:37:29;7.95;;;3.92;;
67514;SDS011;60646;55.802;37.032;2022-10-13T16:39:55;12.20;;;3.70;;